createdAt,value
2018-02-03T00:02:05.253Z,2.50
2018-02-03T00:04:33.546Z,2.50
2018-02-03T00:07:01.823Z,2.50
2018-02-03T00:09:31.063Z,2.60
2018-02-03T00:11:59.355Z,2.50
2018-02-03T00:14:28.158Z,2.50
2018-02-03T00:16:56.443Z,2.50
2018-02-03T00:19:24.704Z,2.50
2018-02-03T00:21:53.739Z,2.60
2018-02-03T00:24:21.992Z,2.50
2018-02-03T00:26:50.273Z,2.60
2018-02-03T00:29:18.535Z,2.60
2018-02-03T00:31:46.849Z,2.60
2018-02-03T00:34:15.139Z,2.60
2018-02-03T00:36:43.422Z,2.50
2018-02-03T00:39:11.671Z,2.50
2018-02-03T00:41:39.928Z,2.60
2018-02-03T00:44:08.967Z,2.60
2018-02-03T00:46:37.224Z,2.50
2018-02-03T00:49:06.265Z,2.60
2018-02-03T00:51:34.513Z,2.50
2018-02-03T00:54:03.572Z,2.60
2018-02-03T00:56:33.996Z,2.30
2018-02-03T00:59:02.287Z,2.50
2018-02-03T01:01:31.510Z,2.60
2018-02-03T01:03:59.870Z,2.60
2018-02-03T01:06:28.191Z,2.60
2018-02-03T01:08:56.479Z,2.60
2018-02-03T01:11:24.787Z,2.60
2018-02-03T01:13:53.064Z,2.60
2018-02-03T01:16:21.314Z,2.50
2018-02-03T01:18:49.573Z,2.50
2018-02-03T01:21:18.606Z,2.30
2018-02-03T01:23:47.658Z,2.30
2018-02-03T01:26:15.920Z,2.20
2018-02-03T01:28:44.297Z,2.20
2018-02-03T01:31:12.540Z,2.20
2018-02-03T01:33:41.583Z,2.30
2018-02-03T01:36:10.616Z,2.30
2018-02-03T01:38:39.823Z,2.30
2018-02-03T01:41:08.123Z,2.30
2018-02-03T01:43:36.401Z,2.30
2018-02-03T01:46:04.711Z,2.20
2018-02-03T01:48:33.030Z,2.10
2018-02-03T01:51:01.341Z,2.00
2018-02-03T01:53:30.510Z,1.80
2018-02-03T01:55:58.803Z,1.70
2018-02-03T01:58:27.095Z,1.60
2018-02-03T02:00:56.178Z,1.40
2018-02-03T02:03:24.433Z,1.30
2018-02-03T02:05:53.457Z,1.10
2018-02-03T02:08:21.736Z,1.10
2018-02-03T02:10:49.996Z,1.10
2018-02-03T02:13:19.886Z,1.00
2018-02-03T02:15:48.223Z,0.90
2018-02-03T02:18:17.278Z,0.90
2018-02-03T02:20:45.563Z,0.80
2018-02-03T02:23:13.819Z,0.90
2018-02-03T02:25:42.088Z,0.90
2018-02-03T02:28:10.343Z,0.90
2018-02-03T02:30:38.620Z,0.80
2018-02-03T02:33:06.901Z,0.80
2018-02-03T02:35:35.176Z,0.70
2018-02-03T02:38:03.431Z,0.60
2018-02-03T02:40:31.800Z,0.50
2018-02-03T02:43:00.118Z,0.50
2018-02-03T02:45:28.458Z,0.50
2018-02-03T02:47:56.725Z,0.60
2018-02-03T02:50:25.048Z,0.60
2018-02-03T02:52:53.289Z,0.60
2018-02-03T02:55:22.320Z,0.70
2018-02-03T02:57:50.588Z,0.60
2018-02-03T03:00:19.636Z,0.80
2018-02-03T03:02:48.015Z,0.80
2018-02-03T03:05:16.307Z,0.90
2018-02-03T03:07:44.579Z,1.00
2018-02-03T03:10:12.855Z,1.10
2018-02-03T03:12:41.891Z,1.30
2018-02-03T03:15:10.165Z,1.30
2018-02-03T03:17:38.442Z,1.40
2018-02-03T03:20:06.718Z,1.40
2018-02-03T03:22:34.999Z,1.40
2018-02-03T03:25:03.310Z,1.50
2018-02-03T03:27:32.394Z,1.50
2018-02-03T03:30:01.735Z,1.50
2018-02-03T03:32:30.081Z,1.60
2018-02-03T03:34:59.307Z,1.60
2018-02-03T03:37:27.666Z,1.60
2018-02-03T03:39:55.936Z,1.60
2018-02-03T03:42:24.176Z,1.60
2018-02-03T03:44:52.455Z,1.60
2018-02-03T03:47:20.703Z,1.60
2018-02-03T03:49:48.989Z,1.60
2018-02-03T03:52:17.277Z,1.50
2018-02-03T03:54:45.587Z,1.50
2018-02-03T03:57:13.865Z,1.50
2018-02-03T03:59:42.111Z,1.50
2018-02-03T04:02:11.143Z,1.50
2018-02-03T04:04:39.405Z,1.50
2018-02-03T04:07:07.659Z,1.60
2018-02-03T04:09:35.920Z,1.60
2018-02-03T04:12:04.183Z,1.70
2018-02-03T04:14:33.208Z,1.70
2018-02-03T04:17:01.547Z,1.70
2018-02-03T04:19:29.909Z,1.70
2018-02-03T04:21:58.215Z,1.70
2018-02-03T04:24:26.494Z,1.70
2018-02-03T04:26:54.756Z,1.70
2018-02-03T04:29:23.014Z,1.70
2018-02-03T04:31:51.277Z,1.70
2018-02-03T04:34:20.292Z,1.70
2018-02-03T04:36:48.567Z,1.70
2018-02-03T04:39:17.871Z,1.80
2018-02-03T04:41:46.222Z,1.70
2018-02-03T04:44:15.260Z,1.80
2018-02-03T04:46:43.559Z,1.70
2018-02-03T04:49:11.831Z,1.80
2018-02-03T04:51:40.092Z,1.80
2018-02-03T04:54:08.352Z,1.80
2018-02-03T04:56:36.660Z,1.80
2018-02-03T04:59:05.667Z,1.90
2018-02-03T05:01:33.939Z,1.80
2018-02-03T05:04:02.220Z,1.90
2018-02-03T05:06:30.529Z,1.90
2018-02-03T05:08:58.825Z,1.90
2018-02-03T05:11:27.168Z,1.90
2018-02-03T05:13:55.472Z,1.90
2018-02-03T05:16:24.545Z,1.90
2018-02-03T05:18:52.831Z,1.90
2018-02-03T05:21:21.072Z,1.80
2018-02-03T05:23:49.354Z,1.80
2018-02-03T05:26:17.622Z,1.70
2018-02-03T05:28:45.941Z,1.60
2018-02-03T05:31:14.202Z,1.60
2018-02-03T05:33:42.464Z,1.60
2018-02-03T05:36:11.492Z,1.50
2018-02-03T05:38:39.771Z,1.50
2018-02-03T05:41:08.020Z,1.50
2018-02-03T05:43:38.879Z,1.50
2018-02-03T05:46:08.404Z,1.40
2018-02-03T05:48:36.664Z,1.40
2018-02-03T05:51:04.964Z,1.40
2018-02-03T05:53:33.199Z,1.40
2018-02-03T05:56:01.504Z,1.30
2018-02-03T05:58:29.830Z,1.30
2018-02-03T06:00:59.916Z,1.40
2018-02-03T06:03:28.297Z,1.40
2018-02-03T06:05:56.556Z,1.40
2018-02-03T06:08:25.595Z,1.40
2018-02-03T06:10:53.848Z,1.30
2018-02-03T06:13:22.893Z,1.50
2018-02-03T06:15:51.168Z,1.40
2018-02-03T06:18:19.427Z,1.50
2018-02-03T06:20:48.460Z,1.30
2018-02-03T06:23:16.792Z,1.30
2018-02-03T06:25:45.076Z,1.30
2018-02-03T06:28:14.112Z,1.00
2018-02-03T06:30:42.359Z,0.90
2018-02-03T06:33:10.623Z,0.90
2018-02-03T06:35:38.883Z,0.80
2018-02-03T06:38:07.906Z,0.80
2018-02-03T06:40:36.164Z,0.70
2018-02-03T06:43:04.432Z,0.80
2018-02-03T06:45:32.680Z,0.80
2018-02-03T06:48:00.957Z,0.90
2018-02-03T06:50:30.013Z,0.90
2018-02-03T06:52:59.061Z,0.90
2018-02-03T06:55:28.124Z,1.00
2018-02-03T06:57:56.378Z,1.00
2018-02-03T07:00:24.650Z,1.10
2018-02-03T07:02:53.663Z,1.30
2018-02-03T07:05:22.706Z,1.30
2018-02-03T07:07:50.966Z,1.30
2018-02-03T07:10:19.215Z,1.40
2018-02-03T07:12:48.259Z,1.40
2018-02-03T07:15:16.549Z,1.30
2018-02-03T07:17:44.795Z,1.40
2018-02-03T07:20:13.060Z,1.40
2018-02-03T07:22:41.316Z,1.40
2018-02-03T07:25:09.580Z,1.40
2018-02-03T07:27:38.634Z,1.50
2018-02-03T07:30:06.920Z,1.40
2018-02-03T07:32:35.192Z,1.30
2018-02-03T07:35:03.626Z,1.60
2018-02-03T07:37:32.112Z,1.60
2018-02-03T07:40:01.139Z,1.70
2018-02-03T07:42:29.404Z,1.70
2018-02-03T07:44:58.458Z,1.60
2018-02-03T07:47:27.490Z,1.70
2018-02-03T07:49:55.764Z,1.70
2018-02-03T07:52:25.213Z,1.80
2018-02-03T07:54:53.929Z,1.80
2018-02-03T07:57:22.626Z,1.90
2018-02-03T07:59:51.143Z,1.90
2018-02-03T08:02:19.922Z,1.90
2018-02-03T08:04:49.077Z,2.00
2018-02-03T08:07:18.229Z,2.40
2018-02-03T08:09:47.039Z,2.30
2018-02-03T08:12:15.462Z,2.40
2018-02-03T08:14:44.917Z,2.40
2018-02-03T08:17:13.957Z,2.40
2018-02-03T08:22:13.080Z,2.40
2018-02-03T08:24:41.513Z,2.30
2018-02-03T08:27:09.908Z,2.40
2018-02-03T08:29:38.307Z,2.50
2018-02-03T08:32:07.810Z,2.50
2018-02-03T08:34:36.549Z,2.50
2018-02-03T08:37:05.336Z,2.50
2018-02-03T08:39:35.335Z,2.60
2018-02-03T08:42:05.348Z,2.60
2018-02-03T08:44:34.953Z,2.80
2018-02-03T08:47:03.623Z,2.70
2018-02-03T08:49:31.998Z,2.90
2018-02-03T08:52:00.631Z,2.80
2018-02-03T08:54:29.407Z,2.90
2018-02-03T08:59:28.638Z,3.00
2018-02-03T09:01:57.262Z,3.00
2018-02-03T09:04:26.452Z,3.10
2018-02-03T09:06:56.521Z,3.40
2018-02-03T09:09:25.037Z,3.40
2018-02-03T09:12:06.294Z,3.40
2018-02-03T09:14:34.849Z,3.40
2018-02-03T09:17:03.414Z,3.40
2018-02-03T09:19:32.086Z,3.50
2018-02-03T09:22:01.058Z,3.70
2018-02-03T09:24:29.662Z,3.60
2018-02-03T09:26:58.813Z,3.60
2018-02-03T09:29:27.488Z,3.60
2018-02-03T09:31:56.304Z,3.60
2018-02-03T09:34:26.088Z,3.70
2018-02-03T09:36:54.679Z,3.90
2018-02-03T09:39:23.419Z,4.00
2018-02-03T09:41:52.750Z,4.10
2018-02-03T09:44:21.898Z,4.20
2018-02-03T09:46:50.610Z,4.20
2018-02-03T09:49:19.130Z,4.30
2018-02-03T09:51:48.509Z,4.20
2018-02-03T09:54:17.131Z,4.20
2018-02-03T09:56:45.692Z,4.10
2018-02-03T09:59:15.029Z,4.20
2018-02-03T10:01:43.596Z,4.00
2018-02-03T10:04:12.530Z,4.30
2018-02-03T10:06:42.510Z,4.50
2018-02-03T10:09:12.124Z,4.60
2018-02-03T10:11:41.872Z,4.70
2018-02-03T10:14:11.745Z,4.70
2018-02-03T10:16:41.041Z,4.60
2018-02-03T10:19:11.199Z,4.60
2018-02-03T10:21:42.638Z,4.40
2018-02-03T10:24:12.119Z,4.40
2018-02-03T10:26:40.637Z,4.30
2018-02-03T10:29:09.307Z,4.40
2018-02-03T10:31:38.429Z,4.60
2018-02-03T10:34:07.752Z,4.50
2018-02-03T10:36:36.653Z,4.60
2018-02-03T10:39:05.333Z,4.50
2018-02-03T10:41:34.035Z,4.70
2018-02-03T10:44:02.816Z,4.80
2018-02-03T10:46:31.330Z,4.80
2018-02-03T10:49:00.991Z,5.00
2018-02-03T10:51:32.181Z,4.80
2018-02-03T10:54:01.001Z,4.80
2018-02-03T10:56:29.970Z,4.90
2018-02-03T10:58:58.889Z,5.00
2018-02-03T11:01:27.983Z,5.10
2018-02-03T11:03:58.779Z,5.30
2018-02-03T11:06:27.589Z,5.30
2018-02-03T11:08:57.081Z,5.30
2018-02-03T11:11:26.089Z,5.30
2018-02-03T11:13:55.679Z,5.40
2018-02-03T11:16:24.512Z,5.30
2018-02-03T11:18:54.073Z,5.20
2018-02-03T11:21:22.795Z,5.40
2018-02-03T11:23:52.238Z,5.40
2018-02-03T11:26:21.398Z,5.40
2018-02-03T11:28:50.949Z,5.30
2018-02-03T11:31:19.693Z,5.30
2018-02-03T11:33:48.283Z,5.20
2018-02-03T11:36:18.159Z,4.60
2018-02-03T11:38:47.944Z,4.90
2018-02-03T11:41:16.804Z,4.80
2018-02-03T11:43:46.294Z,5.10
2018-02-03T11:46:17.264Z,5.20
2018-02-03T11:48:46.847Z,5.20
2018-02-03T11:51:15.778Z,5.30
2018-02-03T11:53:44.646Z,5.00
2018-02-03T11:56:16.103Z,4.80
2018-02-03T11:58:45.114Z,4.80
2018-02-03T12:01:14.243Z,5.00
2018-02-03T12:03:43.624Z,5.10
2018-02-03T12:06:14.568Z,5.10
2018-02-03T12:08:43.209Z,5.10
2018-02-03T12:11:12.889Z,5.10
2018-02-03T12:13:43.256Z,5.10
2018-02-03T12:16:13.160Z,4.90
2018-02-03T12:18:41.571Z,4.90
2018-02-03T12:21:10.651Z,4.70
2018-02-03T12:23:38.936Z,4.70
2018-02-03T12:26:08.474Z,4.70
2018-02-03T12:31:07.163Z,4.70
2018-02-03T12:33:35.733Z,4.90
2018-02-03T12:36:04.896Z,4.80
2018-02-03T12:38:34.093Z,4.80
2018-02-03T12:41:02.589Z,4.90
2018-02-03T12:43:31.020Z,4.90
2018-02-03T12:45:59.485Z,4.80
2018-02-03T12:48:29.136Z,4.70
2018-02-03T12:50:57.565Z,4.70
2018-02-03T12:53:26.660Z,4.80
2018-02-03T12:55:55.704Z,4.90
2018-02-03T12:58:24.607Z,4.90
2018-02-03T13:00:53.344Z,5.00
2018-02-03T13:03:22.361Z,4.90
2018-02-03T13:05:51.651Z,4.70
2018-02-03T13:08:21.705Z,4.90
2018-02-03T13:10:51.254Z,4.70
2018-02-03T13:13:20.245Z,4.70
2018-02-03T13:15:49.136Z,4.80
2018-02-03T13:18:18.627Z,5.10
2018-02-03T13:20:49.712Z,5.20
2018-02-03T13:23:19.604Z,5.20
2018-02-03T13:25:48.542Z,5.30
2018-02-03T13:28:19.807Z,5.50
2018-02-03T13:30:49.558Z,5.40
2018-02-03T13:33:19.880Z,5.40
2018-02-03T13:35:49.041Z,5.50
2018-02-03T13:38:22.469Z,5.40
2018-02-03T13:40:51.817Z,5.40
2018-02-03T13:43:22.849Z,5.30
2018-02-03T13:45:52.212Z,5.20
2018-02-03T13:48:21.111Z,5.10
2018-02-03T13:50:50.345Z,5.10
2018-02-03T13:53:19.170Z,5.10
2018-02-03T13:55:47.873Z,5.00
2018-02-03T13:58:16.637Z,4.90
2018-02-03T14:00:45.630Z,4.90
2018-02-03T14:03:15.762Z,4.80
2018-02-03T14:05:44.795Z,4.70
2018-02-03T14:08:13.557Z,4.80
2018-02-03T14:10:43.475Z,4.70
2018-02-03T14:13:12.453Z,4.60
2018-02-03T14:15:41.506Z,4.60
2018-02-03T14:18:11.163Z,4.60
2018-02-03T14:20:40.464Z,4.50
2018-02-03T14:23:10.086Z,4.50
2018-02-03T14:25:39.069Z,4.40
2018-02-03T14:28:07.898Z,4.40
2018-02-03T14:30:37.872Z,4.50
2018-02-03T14:33:07.660Z,4.60
2018-02-03T14:35:39.634Z,4.70
2018-02-03T14:38:10.610Z,4.70
2018-02-03T14:40:40.416Z,4.60
2018-02-03T14:43:09.366Z,4.50
2018-02-03T14:45:39.630Z,4.40
2018-02-03T14:48:08.360Z,4.40
2018-02-03T14:50:38.690Z,4.20
2018-02-03T14:53:07.920Z,4.20
2018-02-03T14:55:38.739Z,4.10
2018-02-03T14:58:07.818Z,4.10
2018-02-03T15:00:37.905Z,4.10
2018-02-03T15:03:07.158Z,4.10
2018-02-03T15:05:36.623Z,4.10
2018-02-03T15:08:06.344Z,4.00
2018-02-03T15:10:35.526Z,3.90
2018-02-03T15:13:05.477Z,3.90
2018-02-03T15:15:34.362Z,3.90
2018-02-03T15:18:03.998Z,3.90
2018-02-03T15:20:32.535Z,3.90
2018-02-03T15:23:01.290Z,3.90
2018-02-03T15:25:30.340Z,3.90
2018-02-03T15:28:00.264Z,3.80
2018-02-03T15:30:29.344Z,3.80
2018-02-03T15:32:58.536Z,3.80
2018-02-03T15:35:27.475Z,3.80
2018-02-03T15:37:57.265Z,3.80
2018-02-03T15:40:26.235Z,3.70
2018-02-03T15:42:55.010Z,3.80
2018-02-03T15:45:25.063Z,3.70
2018-02-03T15:47:53.923Z,3.60
2018-02-03T15:50:24.033Z,3.60
2018-02-03T15:52:53.367Z,3.50
2018-02-03T15:55:23.474Z,3.50
2018-02-03T15:57:53.237Z,3.40
2018-02-03T16:00:23.480Z,3.40
2018-02-03T16:02:53.974Z,3.30
2018-02-03T16:05:23.275Z,3.30
2018-02-03T16:07:52.425Z,3.20
2018-02-03T16:10:22.789Z,3.20
2018-02-03T16:12:51.632Z,3.10
2018-02-03T16:15:21.118Z,3.10
2018-02-03T16:17:50.884Z,3.00
2018-02-03T16:20:20.938Z,2.90
2018-02-03T16:22:50.654Z,2.90
2018-02-03T16:25:19.235Z,2.90
2018-02-03T16:27:51.370Z,3.00
2018-02-03T16:30:19.977Z,2.90
2018-02-03T16:32:49.043Z,2.90
2018-02-03T16:35:17.444Z,2.90
2018-02-03T16:37:47.623Z,2.90
2018-02-03T16:40:27.926Z,2.90
2018-02-03T16:43:06.442Z,2.90
2018-02-03T16:45:38.361Z,2.90
2018-02-03T16:48:08.167Z,2.90
2018-02-03T16:50:40.470Z,2.90
2018-02-03T16:53:10.573Z,2.90
2018-02-03T16:55:39.589Z,2.80
2018-02-03T16:58:10.328Z,2.80
2018-02-03T17:00:40.404Z,2.70
2018-02-03T17:03:11.602Z,2.70
2018-02-03T17:05:41.816Z,2.70
2018-02-03T17:08:11.343Z,2.70
2018-02-03T17:10:40.968Z,2.80
2018-02-03T17:13:10.438Z,2.70
2018-02-03T17:15:40.474Z,2.80
2018-02-03T17:18:10.818Z,2.70
2018-02-03T17:20:41.046Z,2.70
2018-02-03T17:23:10.139Z,2.70
2018-02-03T17:25:38.931Z,2.60
2018-02-03T17:28:09.138Z,2.60
2018-02-03T17:30:38.002Z,2.70
2018-02-03T17:33:06.718Z,2.70
2018-02-03T17:35:35.332Z,2.60
2018-02-03T17:38:09.686Z,2.60
2018-02-03T17:40:38.346Z,2.60
2018-02-03T17:43:09.373Z,2.60
2018-02-03T17:45:43.533Z,2.60
2018-02-03T17:48:11.860Z,2.60
2018-02-03T17:50:41.298Z,2.50
2018-02-03T17:53:09.603Z,2.50
2018-02-03T17:55:43.321Z,2.50
2018-02-03T17:58:11.607Z,2.50
2018-02-03T18:00:40.655Z,2.50
2018-02-03T18:03:08.919Z,2.50
2018-02-03T18:05:37.346Z,2.50
2018-02-03T18:08:05.625Z,2.40
2018-02-03T18:10:34.078Z,2.40
2018-02-03T18:13:02.385Z,2.40
2018-02-03T18:15:30.632Z,2.40
2018-02-03T18:17:58.933Z,2.40
2018-02-03T18:20:27.977Z,2.30
2018-02-03T18:22:56.288Z,2.30
2018-02-03T18:25:24.510Z,2.40
2018-02-03T18:27:53.577Z,2.40
2018-02-03T18:30:21.887Z,2.40
2018-02-03T18:32:51.019Z,2.40
2018-02-03T18:35:20.040Z,2.40
2018-02-03T18:37:49.086Z,2.40
2018-02-03T18:40:17.591Z,2.30
2018-02-03T18:42:45.861Z,2.40
2018-02-03T18:45:32.088Z,2.40
2018-02-03T18:48:00.374Z,2.40
2018-02-03T18:50:29.400Z,2.40
2018-02-03T18:52:59.623Z,2.40
2018-02-03T18:55:28.680Z,2.40
2018-02-03T18:57:57.708Z,2.40
2018-02-03T19:00:25.952Z,2.40
2018-02-03T19:02:54.254Z,2.40
2018-02-03T19:05:23.321Z,2.40
2018-02-03T19:07:51.695Z,2.40
2018-02-03T19:10:20.729Z,2.40
2018-02-03T19:12:49.007Z,2.40
2018-02-03T19:15:17.269Z,2.40
2018-02-03T19:17:45.788Z,2.40
2018-02-03T19:20:14.089Z,2.40
2018-02-03T19:22:42.370Z,2.40
2018-02-03T19:25:10.616Z,2.30
2018-02-03T19:27:38.910Z,2.30
2018-02-03T19:30:07.300Z,2.30
2018-02-03T19:32:35.676Z,2.30
2018-02-03T19:35:04.870Z,2.20
2018-02-03T19:37:33.178Z,2.20
2018-02-03T19:40:01.443Z,2.10
2018-02-03T19:42:29.803Z,2.10
2018-02-03T19:44:58.865Z,2.10
2018-02-03T19:47:27.229Z,2.10
2018-02-03T19:49:55.530Z,2.10
2018-02-03T19:52:23.860Z,2.10
2018-02-03T19:54:52.243Z,2.10
2018-02-03T19:57:20.516Z,2.00
2018-02-03T19:59:49.612Z,2.00
2018-02-03T20:02:17.879Z,1.90
2018-02-03T20:04:46.157Z,2.00
2018-02-03T20:07:14.424Z,2.00
2018-02-03T20:09:42.718Z,2.00
2018-02-03T20:12:10.997Z,2.00
2018-02-03T20:14:39.353Z,2.00
2018-02-03T20:17:07.676Z,2.00
2018-02-03T20:19:35.998Z,2.00
2018-02-03T20:22:04.285Z,2.00
2018-02-03T20:24:32.613Z,2.00
2018-02-03T20:27:00.976Z,2.00
2018-02-03T20:29:29.959Z,2.00
2018-02-03T20:31:58.219Z,2.00
2018-02-03T20:34:26.495Z,2.00
2018-02-03T20:36:55.544Z,2.00
2018-02-03T20:39:23.884Z,1.90
2018-02-03T20:41:52.899Z,1.90
2018-02-03T20:44:22.880Z,1.90
2018-02-03T20:46:51.204Z,1.90
2018-02-03T20:49:19.573Z,1.90
2018-02-03T20:51:47.854Z,1.90
2018-02-03T20:54:16.182Z,1.90
2018-02-03T20:56:45.297Z,1.90
2018-02-03T20:59:13.610Z,1.80
2018-02-03T21:01:41.927Z,1.90
2018-02-03T21:04:10.210Z,1.90
2018-02-03T21:06:38.554Z,1.90
2018-02-03T21:09:07.704Z,1.90
2018-02-03T21:11:36.164Z,1.80
2018-02-03T21:14:05.663Z,1.90
2018-02-03T21:16:34.165Z,1.90
2018-02-03T21:19:02.544Z,1.90
2018-02-03T21:21:30.828Z,1.90
2018-02-03T21:23:59.096Z,1.90
2018-02-03T21:26:27.347Z,1.90
2018-02-03T21:28:55.599Z,1.90
2018-02-03T21:31:23.894Z,2.00
2018-02-03T21:33:52.252Z,2.10
2018-02-03T21:36:20.580Z,2.10
2018-02-03T21:38:48.852Z,2.10
2018-02-03T21:41:17.112Z,2.10
2018-02-03T21:43:45.411Z,2.10
2018-02-03T21:46:13.699Z,2.10
2018-02-03T21:48:41.940Z,2.10
2018-02-03T21:51:10.269Z,2.10
2018-02-03T21:53:38.522Z,2.20
2018-02-03T21:56:07.013Z,2.20
2018-02-03T21:58:35.322Z,2.20
2018-02-03T22:01:03.721Z,2.20
2018-02-03T22:03:32.015Z,2.30
2018-02-03T22:06:00.351Z,2.30
2018-02-03T22:08:28.642Z,2.30
2018-02-03T22:10:56.962Z,2.30
2018-02-03T22:13:26.079Z,2.30
2018-02-03T22:15:54.399Z,2.20
2018-02-03T22:18:22.707Z,2.30
2018-02-03T22:20:51.033Z,2.30
2018-02-03T22:23:20.051Z,2.30
2018-02-03T22:25:48.320Z,2.20
2018-02-03T22:28:17.345Z,2.20
2018-02-03T22:30:45.671Z,2.20
2018-02-03T22:33:14.742Z,2.10
2018-02-03T22:35:43.025Z,2.10
2018-02-03T22:40:40.961Z,2.00
2018-02-03T22:43:09.343Z,2.00
2018-02-03T22:45:38.428Z,1.80
2018-02-03T22:48:06.768Z,1.80
2018-02-03T22:50:35.172Z,1.80
2018-02-03T22:53:03.558Z,1.80
2018-02-03T22:55:31.881Z,1.70
2018-02-03T22:58:00.182Z,1.80
2018-02-03T23:00:28.448Z,1.80
2018-02-03T23:02:59.448Z,1.80
2018-02-03T23:05:27.686Z,1.80
2018-02-03T23:07:55.963Z,1.80
2018-02-03T23:10:24.279Z,1.80
2018-02-03T23:12:53.420Z,1.90
2018-02-03T23:15:21.698Z,1.90
2018-02-03T23:17:49.999Z,1.90
2018-02-03T23:20:18.254Z,1.90
2018-02-03T23:22:46.511Z,1.90
2018-02-03T23:25:14.778Z,1.90
2018-02-03T23:27:43.821Z,1.90
2018-02-03T23:30:13.117Z,1.80
2018-02-03T23:32:41.382Z,1.90
2018-02-03T23:35:09.689Z,1.90
2018-02-03T23:37:38.044Z,1.90
2018-02-03T23:40:07.032Z,1.90
2018-02-03T23:42:36.147Z,1.90
2018-02-03T23:45:05.359Z,1.90
2018-02-03T23:47:33.894Z,1.90
2018-02-03T23:50:03.230Z,1.80
2018-02-03T23:52:31.507Z,1.80
2018-02-03T23:55:00.519Z,1.80
2018-02-03T23:57:28.780Z,1.80
2018-02-03T23:59:57.043Z,1.80
